sensor_id;sensor_type;location;lat;lon;timestamp;P1;durP1;ratioP1;P2;durP2;ratioP2
20290;SDS011;10304;51.074;13.754;2023-10-08T00:02:27;8.50;;;3.92;;
20290;SDS011;10304;51.074;13.754;2023-10-08T00:04:54;7.25;;;4.30;;
20290;SDS011;10304;51.074;13.754;2023-10-08T00:07:21;8.20;;;4.07;;
20290;SDS011;10304;51.074;13.754;2023-10-08T00:09:48;10.85;;;4.30;;
20290;SDS011;10304;51.074;13.754;2023-10-08T00:12:17;7.10;;;4.13;;
20290;SDS011;10304;51.074;13.754;2023-10-08T00:14:45;6.50;;;4.20;;
20290;SDS011;10304;51.074;13.754;2023-10-08T00:17:16;7.10;;;4.18;;
20290;SDS011;10304;51.074;13.754;2023-10-08T00:19:43;8.23;;;4.07;;
20290;SDS011;10304;51.074;13.754;2023-10-08T00:22:10;7.85;;;4.15;;
20290;SDS011;10304;51.074;13.754;2023-10-08T00:24:40;11.77;;;4.45;;
20290;SDS011;10304;51.074;13.754;2023-10-08T00:27:08;7.57;;;4.60;;
20290;SDS011;10304;51.074;13.754;2023-10-08T00:29:35;8.27;;;4.57;;
20290;SDS011;10304;51.074;13.754;2023-10-08T00:32:06;11.35;;;4.75;;
20290;SDS011;10304;51.074;13.754;2023-10-08T00:34:39;9.38;;;4.03;;
20290;SDS011;10304;51.074;13.754;2023-10-08T00:37:08;13.15;;;4.38;;
20290;SDS011;10304;51.074;13.754;2023-10-08T00:39:37;6.97;;;4.78;;
20290;SDS011;10304;51.074;13.754;2023-10-08T00:42:06;7.80;;;4.53;;
20290;SDS011;10304;51.074;13.754;2023-10-08T00:44:34;10.15;;;4.10;;
20290;SDS011;10304;51.074;13.754;2023-10-08T00:47:11;9.70;;;4.43;;
20290;SDS011;10304;51.074;13.754;2023-10-08T00:49:38;6.72;;;4.05;;
20290;SDS011;10304;51.074;13.754;2023-10-08T00:52:11;8.68;;;4.43;;
20290;SDS011;10304;51.074;13.754;2023-10-08T00:54:40;9.63;;;4.70;;
20290;SDS011;10304;51.074;13.754;2023-10-08T00:57:27;8.93;;;4.55;;
20290;SDS011;10304;51.074;13.754;2023-10-08T00:59:56;10.18;;;5.00;;
20290;SDS011;10304;51.074;13.754;2023-10-08T01:02:27;7.90;;;4.97;;
20290;SDS011;10304;51.074;13.754;2023-10-08T01:04:56;8.52;;;4.70;;
20290;SDS011;10304;51.074;13.754;2023-10-08T01:07:23;7.85;;;4.68;;
20290;SDS011;10304;51.074;13.754;2023-10-08T01:09:51;10.32;;;4.97;;
20290;SDS011;10304;51.074;13.754;2023-10-08T01:12:22;8.65;;;4.70;;
20290;SDS011;10304;51.074;13.754;2023-10-08T01:14:55;9.07;;;4.97;;
20290;SDS011;10304;51.074;13.754;2023-10-08T01:17:33;9.23;;;5.10;;
20290;SDS011;10304;51.074;13.754;2023-10-08T01:20:12;12.07;;;5.68;;
20290;SDS011;10304;51.074;13.754;2023-10-08T01:23:04;9.65;;;6.00;;
20290;SDS011;10304;51.074;13.754;2023-10-08T01:25:40;11.23;;;5.82;;
20290;SDS011;10304;51.074;13.754;2023-10-08T01:28:08;10.43;;;6.05;;
20290;SDS011;10304;51.074;13.754;2023-10-08T01:30:44;14.30;;;7.25;;
20290;SDS011;10304;51.074;13.754;2023-10-08T01:33:13;10.50;;;7.40;;
20290;SDS011;10304;51.074;13.754;2023-10-08T01:35:44;13.10;;;7.80;;
20290;SDS011;10304;51.074;13.754;2023-10-08T01:38:11;11.98;;;8.00;;
20290;SDS011;10304;51.074;13.754;2023-10-08T01:40:40;12.55;;;8.07;;
20290;SDS011;10304;51.074;13.754;2023-10-08T01:43:08;10.07;;;8.55;;
20290;SDS011;10304;51.074;13.754;2023-10-08T01:45:36;12.13;;;7.60;;
20290;SDS011;10304;51.074;13.754;2023-10-08T01:48:07;9.52;;;5.85;;
20290;SDS011;10304;51.074;13.754;2023-10-08T01:50:36;7.75;;;4.55;;
20290;SDS011;10304;51.074;13.754;2023-10-08T01:53:04;4.30;;;3.10;;
20290;SDS011;10304;51.074;13.754;2023-10-08T01:55:34;1.98;;;1.67;;
20290;SDS011;10304;51.074;13.754;2023-10-08T01:58:15;1.95;;;1.30;;
20290;SDS011;10304;51.074;13.754;2023-10-08T02:00:46;1.83;;;0.80;;
20290;SDS011;10304;51.074;13.754;2023-10-08T02:03:14;1.05;;;0.68;;
20290;SDS011;10304;51.074;13.754;2023-10-08T02:05:42;0.70;;;0.40;;
20290;SDS011;10304;51.074;13.754;2023-10-08T02:08:11;0.30;;;0.30;;
20290;SDS011;10304;51.074;13.754;2023-10-08T02:10:39;0.20;;;0.20;;
20290;SDS011;10304;51.074;13.754;2023-10-08T02:13:07;0.88;;;0.35;;
20290;SDS011;10304;51.074;13.754;2023-10-08T02:15:51;0.45;;;0.30;;
20290;SDS011;10304;51.074;13.754;2023-10-08T02:18:18;0.45;;;0.20;;
20290;SDS011;10304;51.074;13.754;2023-10-08T02:20:46;0.20;;;0.20;;
20290;SDS011;10304;51.074;13.754;2023-10-08T02:23:14;0.15;;;0.15;;
20290;SDS011;10304;51.074;13.754;2023-10-08T02:25:41;0.20;;;0.20;;
20290;SDS011;10304;51.074;13.754;2023-10-08T02:28:08;0.10;;;0.10;;
20290;SDS011;10304;51.074;13.754;2023-10-08T02:30:35;0.17;;;0.17;;
20290;SDS011;10304;51.074;13.754;2023-10-08T02:33:05;0.65;;;0.20;;
20290;SDS011;10304;51.074;13.754;2023-10-08T02:35:43;0.20;;;0.20;;
20290;SDS011;10304;51.074;13.754;2023-10-08T02:38:14;0.20;;;0.20;;
20290;SDS011;10304;51.074;13.754;2023-10-08T02:40:43;0.50;;;0.20;;
20290;SDS011;10304;51.074;13.754;2023-10-08T02:43:14;0.20;;;0.20;;
20290;SDS011;10304;51.074;13.754;2023-10-08T02:45:42;0.20;;;0.10;;
20290;SDS011;10304;51.074;13.754;2023-10-08T02:48:13;0.10;;;0.10;;
20290;SDS011;10304;51.074;13.754;2023-10-08T02:50:43;0.30;;;0.20;;
20290;SDS011;10304;51.074;13.754;2023-10-08T02:53:13;0.10;;;0.10;;
20290;SDS011;10304;51.074;13.754;2023-10-08T02:55:50;0.20;;;0.17;;
20290;SDS011;10304;51.074;13.754;2023-10-08T02:58:16;0.17;;;0.10;;
20290;SDS011;10304;51.074;13.754;2023-10-08T03:00:46;0.10;;;0.10;;
20290;SDS011;10304;51.074;13.754;2023-10-08T03:03:15;0.10;;;0.10;;
20290;SDS011;10304;51.074;13.754;2023-10-08T03:05:46;0.15;;;0.15;;
20290;SDS011;10304;51.074;13.754;2023-10-08T03:08:15;0.15;;;0.10;;
20290;SDS011;10304;51.074;13.754;2023-10-08T03:10:49;0.10;;;0.10;;
20290;SDS011;10304;51.074;13.754;2023-10-08T03:13:22;0.20;;;0.20;;
20290;SDS011;10304;51.074;13.754;2023-10-08T03:15:48;0.50;;;0.20;;
20290;SDS011;10304;51.074;13.754;2023-10-08T03:18:27;0.93;;;0.00;;
20290;SDS011;10304;51.074;13.754;2023-10-08T03:21:08;0.55;;;0.20;;
20290;SDS011;10304;51.074;13.754;2023-10-08T03:23:50;0.20;;;0.20;;
20290;SDS011;10304;51.074;13.754;2023-10-08T03:26:19;0.10;;;0.05;;
20290;SDS011;10304;51.074;13.754;2023-10-08T03:28:59;0.28;;;0.10;;
20290;SDS011;10304;51.074;13.754;2023-10-08T03:31:31;0.20;;;0.10;;
20290;SDS011;10304;51.074;13.754;2023-10-08T03:34:15;0.10;;;0.10;;
20290;SDS011;10304;51.074;13.754;2023-10-08T03:36:44;0.30;;;0.20;;
20290;SDS011;10304;51.074;13.754;2023-10-08T03:39:15;0.40;;;0.20;;
20290;SDS011;10304;51.074;13.754;2023-10-08T03:41:46;0.60;;;0.30;;
20290;SDS011;10304;51.074;13.754;2023-10-08T03:44:32;0.55;;;0.40;;
20290;SDS011;10304;51.074;13.754;2023-10-08T03:47:03;0.63;;;0.25;;
20290;SDS011;10304;51.074;13.754;2023-10-08T03:49:37;0.90;;;0.52;;
20290;SDS011;10304;51.074;13.754;2023-10-08T03:52:11;2.38;;;0.90;;
20290;SDS011;10304;51.074;13.754;2023-10-08T03:54:39;6.15;;;1.63;;
20290;SDS011;10304;51.074;13.754;2023-10-08T03:57:14;5.13;;;1.23;;
20290;SDS011;10304;51.074;13.754;2023-10-08T03:59:51;6.38;;;1.50;;
20290;SDS011;10304;51.074;13.754;2023-10-08T04:02:24;6.47;;;1.60;;
20290;SDS011;10304;51.074;13.754;2023-10-08T04:05:07;4.68;;;1.70;;
20290;SDS011;10304;51.074;13.754;2023-10-08T04:07:48;9.48;;;1.90;;
20290;SDS011;10304;51.074;13.754;2023-10-08T04:10:27;4.90;;;1.65;;
20290;SDS011;10304;51.074;13.754;2023-10-08T04:13:09;5.75;;;1.60;;
20290;SDS011;10304;51.074;13.754;2023-10-08T04:15:36;7.53;;;2.10;;
20290;SDS011;10304;51.074;13.754;2023-10-08T04:18:08;6.47;;;2.10;;
20290;SDS011;10304;51.074;13.754;2023-10-08T04:20:35;7.72;;;1.98;;
20290;SDS011;10304;51.074;13.754;2023-10-08T04:23:06;6.85;;;1.80;;
20290;SDS011;10304;51.074;13.754;2023-10-08T04:25:40;9.13;;;2.60;;
20290;SDS011;10304;51.074;13.754;2023-10-08T04:28:10;4.93;;;1.90;;
20290;SDS011;10304;51.074;13.754;2023-10-08T04:30:43;7.57;;;1.80;;
20290;SDS011;10304;51.074;13.754;2023-10-08T04:33:11;8.88;;;1.95;;
20290;SDS011;10304;51.074;13.754;2023-10-08T04:35:40;6.63;;;1.70;;
20290;SDS011;10304;51.074;13.754;2023-10-08T04:38:28;7.43;;;2.30;;
20290;SDS011;10304;51.074;13.754;2023-10-08T04:40:55;4.00;;;1.60;;
20290;SDS011;10304;51.074;13.754;2023-10-08T04:43:28;5.05;;;1.60;;
20290;SDS011;10304;51.074;13.754;2023-10-08T04:45:57;4.10;;;1.55;;
20290;SDS011;10304;51.074;13.754;2023-10-08T04:48:25;5.15;;;1.48;;
20290;SDS011;10304;51.074;13.754;2023-10-08T04:50:54;3.83;;;1.55;;
20290;SDS011;10304;51.074;13.754;2023-10-08T04:53:28;8.10;;;1.75;;
20290;SDS011;10304;51.074;13.754;2023-10-08T04:56:03;3.42;;;1.58;;
20290;SDS011;10304;51.074;13.754;2023-10-08T04:58:45;3.85;;;1.60;;
20290;SDS011;10304;51.074;13.754;2023-10-08T05:01:13;3.50;;;1.65;;
20290;SDS011;10304;51.074;13.754;2023-10-08T05:03:45;4.50;;;1.20;;
20290;SDS011;10304;51.074;13.754;2023-10-08T05:06:29;3.60;;;1.30;;
20290;SDS011;10304;51.074;13.754;2023-10-08T05:08:59;4.57;;;1.40;;
20290;SDS011;10304;51.074;13.754;2023-10-08T05:11:37;6.25;;;1.42;;
20290;SDS011;10304;51.074;13.754;2023-10-08T05:14:23;2.22;;;1.13;;
20290;SDS011;10304;51.074;13.754;2023-10-08T05:17:01;2.60;;;1.02;;
20290;SDS011;10304;51.074;13.754;2023-10-08T05:19:35;3.47;;;0.98;;
20290;SDS011;10304;51.074;13.754;2023-10-08T05:22:09;2.78;;;1.08;;
20290;SDS011;10304;51.074;13.754;2023-10-08T05:24:56;1.48;;;0.98;;
20290;SDS011;10304;51.074;13.754;2023-10-08T05:27:55;3.13;;;1.15;;
20290;SDS011;10304;51.074;13.754;2023-10-08T05:30:27;2.75;;;1.17;;
20290;SDS011;10304;51.074;13.754;2023-10-08T05:33:04;1.98;;;1.02;;
20290;SDS011;10304;51.074;13.754;2023-10-08T05:35:33;3.08;;;1.35;;
20290;SDS011;10304;51.074;13.754;2023-10-08T05:38:07;2.13;;;0.90;;
20290;SDS011;10304;51.074;13.754;2023-10-08T05:40:52;5.03;;;1.05;;
20290;SDS011;10304;51.074;13.754;2023-10-08T05:43:22;3.00;;;1.15;;
20290;SDS011;10304;51.074;13.754;2023-10-08T05:46:11;2.47;;;0.80;;
20290;SDS011;10304;51.074;13.754;2023-10-08T05:51:30;3.97;;;1.30;;
20290;SDS011;10304;51.074;13.754;2023-10-08T05:54:16;2.88;;;1.20;;
20290;SDS011;10304;51.074;13.754;2023-10-08T05:56:56;3.40;;;1.33;;
20290;SDS011;10304;51.074;13.754;2023-10-08T05:59:36;3.58;;;1.27;;
20290;SDS011;10304;51.074;13.754;2023-10-08T06:02:26;84.18;;;45.83;;
20290;SDS011;10304;51.074;13.754;2023-10-08T06:05:05;83.50;;;42.65;;
20290;SDS011;10304;51.074;13.754;2023-10-08T06:07:40;449.35;;;219.30;;
20290;SDS011;10304;51.074;13.754;2023-10-08T06:10:25;170.65;;;71.80;;
20290;SDS011;10304;51.074;13.754;2023-10-08T06:15:45;5.03;;;1.92;;
20290;SDS011;10304;51.074;13.754;2023-10-08T06:18:22;4.97;;;1.27;;
20290;SDS011;10304;51.074;13.754;2023-10-08T06:20:53;29.75;;;24.15;;
20290;SDS011;10304;51.074;13.754;2023-10-08T06:23:21;57.47;;;35.05;;
20290;SDS011;10304;51.074;13.754;2023-10-08T06:25:52;10.98;;;6.05;;
20290;SDS011;10304;51.074;13.754;2023-10-08T06:28:52;37.70;;;23.58;;
20290;SDS011;10304;51.074;13.754;2023-10-08T06:31:23;10.02;;;6.75;;
20290;SDS011;10304;51.074;13.754;2023-10-08T06:33:52;4.47;;;1.80;;
20290;SDS011;10304;51.074;13.754;2023-10-08T06:36:19;4.05;;;2.25;;
20290;SDS011;10304;51.074;13.754;2023-10-08T06:38:50;4.13;;;2.45;;
20290;SDS011;10304;51.074;13.754;2023-10-08T06:41:17;5.40;;;2.55;;
20290;SDS011;10304;51.074;13.754;2023-10-08T06:44:04;2.67;;;1.55;;
20290;SDS011;10304;51.074;13.754;2023-10-08T06:46:41;2.55;;;1.45;;
20290;SDS011;10304;51.074;13.754;2023-10-08T06:49:08;3.45;;;1.50;;
20290;SDS011;10304;51.074;13.754;2023-10-08T06:51:39;3.28;;;1.80;;
20290;SDS011;10304;51.074;13.754;2023-10-08T06:54:10;2.40;;;1.33;;
20290;SDS011;10304;51.074;13.754;2023-10-08T06:56:40;2.58;;;1.42;;
20290;SDS011;10304;51.074;13.754;2023-10-08T06:59:13;335.20;;;193.15;;
20290;SDS011;10304;51.074;13.754;2023-10-08T07:01:40;509.00;;;256.83;;
20290;SDS011;10304;51.074;13.754;2023-10-08T07:04:12;411.48;;;188.15;;
20290;SDS011;10304;51.074;13.754;2023-10-08T07:06:40;493.55;;;218.60;;
20290;SDS011;10304;51.074;13.754;2023-10-08T07:09:09;758.28;;;388.70;;
20290;SDS011;10304;51.074;13.754;2023-10-08T07:11:49;126.13;;;54.80;;
20290;SDS011;10304;51.074;13.754;2023-10-08T07:14:21;145.88;;;85.45;;
20290;SDS011;10304;51.074;13.754;2023-10-08T07:16:53;49.47;;;31.60;;
20290;SDS011;10304;51.074;13.754;2023-10-08T07:19:21;12.07;;;8.15;;
20290;SDS011;10304;51.074;13.754;2023-10-08T07:21:50;3.30;;;2.30;;
20290;SDS011;10304;51.074;13.754;2023-10-08T07:24:20;2.30;;;1.60;;
20290;SDS011;10304;51.074;13.754;2023-10-08T07:26:48;3.38;;;1.60;;
20290;SDS011;10304;51.074;13.754;2023-10-08T07:29:16;3.05;;;1.40;;
20290;SDS011;10304;51.074;13.754;2023-10-08T07:31:44;3.58;;;1.65;;
20290;SDS011;10304;51.074;13.754;2023-10-08T07:34:15;2.20;;;1.35;;
20290;SDS011;10304;51.074;13.754;2023-10-08T07:36:44;2.08;;;1.38;;
20290;SDS011;10304;51.074;13.754;2023-10-08T07:39:18;3.67;;;1.90;;
20290;SDS011;10304;51.074;13.754;2023-10-08T07:42:02;3.55;;;1.70;;
20290;SDS011;10304;51.074;13.754;2023-10-08T07:44:34;2.65;;;1.60;;
20290;SDS011;10304;51.074;13.754;2023-10-08T07:47:07;2.83;;;1.60;;
20290;SDS011;10304;51.074;13.754;2023-10-08T07:49:39;3.53;;;1.52;;
20290;SDS011;10304;51.074;13.754;2023-10-08T07:52:06;2.78;;;1.70;;
20290;SDS011;10304;51.074;13.754;2023-10-08T07:54:32;2.45;;;1.50;;
20290;SDS011;10304;51.074;13.754;2023-10-08T07:57:04;3.70;;;1.65;;
20290;SDS011;10304;51.074;13.754;2023-10-08T07:59:38;3.58;;;1.75;;
20290;SDS011;10304;51.074;13.754;2023-10-08T08:02:21;3.83;;;1.95;;
20290;SDS011;10304;51.074;13.754;2023-10-08T08:04:53;2.92;;;2.33;;
20290;SDS011;10304;51.074;13.754;2023-10-08T08:07:20;7.80;;;4.47;;
20290;SDS011;10304;51.074;13.754;2023-10-08T08:09:51;12.27;;;7.93;;
20290;SDS011;10304;51.074;13.754;2023-10-08T08:12:24;3.83;;;2.13;;
20290;SDS011;10304;51.074;13.754;2023-10-08T08:14:53;4.82;;;1.67;;
20290;SDS011;10304;51.074;13.754;2023-10-08T08:17:20;3.22;;;1.52;;
20290;SDS011;10304;51.074;13.754;2023-10-08T08:19:50;7.20;;;3.67;;
20290;SDS011;10304;51.074;13.754;2023-10-08T08:22:19;7.70;;;3.50;;
20290;SDS011;10304;51.074;13.754;2023-10-08T08:24:49;15.15;;;7.00;;
20290;SDS011;10304;51.074;13.754;2023-10-08T08:27:24;4.95;;;2.13;;
20290;SDS011;10304;51.074;13.754;2023-10-08T08:30:01;4.72;;;1.92;;
20290;SDS011;10304;51.074;13.754;2023-10-08T08:32:37;4.22;;;2.17;;
20290;SDS011;10304;51.074;13.754;2023-10-08T08:35:09;2.80;;;1.58;;
20290;SDS011;10304;51.074;13.754;2023-10-08T08:37:37;4.97;;;1.98;;
20290;SDS011;10304;51.074;13.754;2023-10-08T08:40:05;4.15;;;1.55;;
20290;SDS011;10304;51.074;13.754;2023-10-08T08:42:35;14.82;;;8.65;;
20290;SDS011;10304;51.074;13.754;2023-10-08T08:45:03;7.05;;;3.08;;
20290;SDS011;10304;51.074;13.754;2023-10-08T08:47:35;4.43;;;2.05;;
20290;SDS011;10304;51.074;13.754;2023-10-08T08:50:03;3.72;;;1.50;;
20290;SDS011;10304;51.074;13.754;2023-10-08T08:52:35;4.45;;;2.00;;
20290;SDS011;10304;51.074;13.754;2023-10-08T08:55:06;3.80;;;1.67;;
20290;SDS011;10304;51.074;13.754;2023-10-08T08:57:41;4.43;;;2.00;;
20290;SDS011;10304;51.074;13.754;2023-10-08T09:00:14;3.78;;;2.00;;
20290;SDS011;10304;51.074;13.754;2023-10-08T09:02:45;5.60;;;2.20;;
20290;SDS011;10304;51.074;13.754;2023-10-08T09:05:14;2.92;;;1.75;;
20290;SDS011;10304;51.074;13.754;2023-10-08T09:07:52;3.33;;;1.70;;
20290;SDS011;10304;51.074;13.754;2023-10-08T09:10:19;4.25;;;2.45;;
20290;SDS011;10304;51.074;13.754;2023-10-08T09:12:46;5.25;;;1.90;;
20290;SDS011;10304;51.074;13.754;2023-10-08T09:15:13;11.70;;;5.78;;
20290;SDS011;10304;51.074;13.754;2023-10-08T09:17:41;10.88;;;5.18;;
20290;SDS011;10304;51.074;13.754;2023-10-08T09:20:10;6.10;;;2.65;;
20290;SDS011;10304;51.074;13.754;2023-10-08T09:22:38;4.30;;;1.83;;
20290;SDS011;10304;51.074;13.754;2023-10-08T09:25:05;4.95;;;1.67;;
20290;SDS011;10304;51.074;13.754;2023-10-08T09:27:33;26.38;;;14.98;;
20290;SDS011;10304;51.074;13.754;2023-10-08T09:30:04;69.07;;;30.95;;
20290;SDS011;10304;51.074;13.754;2023-10-08T09:32:35;78.60;;;35.83;;
20290;SDS011;10304;51.074;13.754;2023-10-08T09:35:06;13.18;;;5.63;;
20290;SDS011;10304;51.074;13.754;2023-10-08T09:37:35;8.65;;;2.58;;
20290;SDS011;10304;51.074;13.754;2023-10-08T09:40:03;5.70;;;2.53;;
20290;SDS011;10304;51.074;13.754;2023-10-08T09:42:35;4.82;;;2.20;;
20290;SDS011;10304;51.074;13.754;2023-10-08T09:45:08;7.25;;;2.80;;
20290;SDS011;10304;51.074;13.754;2023-10-08T09:47:36;5.55;;;2.63;;
20290;SDS011;10304;51.074;13.754;2023-10-08T09:50:09;6.13;;;2.20;;
20290;SDS011;10304;51.074;13.754;2023-10-08T09:52:40;8.85;;;2.53;;
20290;SDS011;10304;51.074;13.754;2023-10-08T09:55:30;6.70;;;2.63;;
20290;SDS011;10304;51.074;13.754;2023-10-08T09:57:57;4.55;;;2.40;;
20290;SDS011;10304;51.074;13.754;2023-10-08T10:00:24;5.93;;;2.42;;
20290;SDS011;10304;51.074;13.754;2023-10-08T10:02:59;6.28;;;2.63;;
20290;SDS011;10304;51.074;13.754;2023-10-08T10:05:34;14.48;;;6.30;;
20290;SDS011;10304;51.074;13.754;2023-10-08T10:08:02;15.98;;;9.10;;
20290;SDS011;10304;51.074;13.754;2023-10-08T10:10:37;7.40;;;3.58;;
20290;SDS011;10304;51.074;13.754;2023-10-08T10:13:05;7.03;;;2.40;;
20290;SDS011;10304;51.074;13.754;2023-10-08T10:15:36;5.05;;;2.10;;
20290;SDS011;10304;51.074;13.754;2023-10-08T10:18:08;5.28;;;2.60;;
20290;SDS011;10304;51.074;13.754;2023-10-08T10:20:45;7.82;;;3.13;;
20290;SDS011;10304;51.074;13.754;2023-10-08T10:23:39;5.47;;;2.13;;
20290;SDS011;10304;51.074;13.754;2023-10-08T10:31:46;6.30;;;2.40;;
20290;SDS011;10304;51.074;13.754;2023-10-08T10:34:26;7.40;;;2.45;;
20290;SDS011;10304;51.074;13.754;2023-10-08T10:36:55;6.80;;;2.72;;
20290;SDS011;10304;51.074;13.754;2023-10-08T10:39:25;6.70;;;2.85;;
20290;SDS011;10304;51.074;13.754;2023-10-08T10:41:54;5.50;;;2.30;;
20290;SDS011;10304;51.074;13.754;2023-10-08T10:44:24;7.65;;;2.20;;
20290;SDS011;10304;51.074;13.754;2023-10-08T10:46:51;5.90;;;1.98;;
20290;SDS011;10304;51.074;13.754;2023-10-08T10:49:38;6.20;;;1.88;;
20290;SDS011;10304;51.074;13.754;2023-10-08T10:52:15;4.20;;;1.85;;
20290;SDS011;10304;51.074;13.754;2023-10-08T10:54:52;5.05;;;1.83;;
20290;SDS011;10304;51.074;13.754;2023-10-08T10:57:26;4.18;;;1.60;;
20290;SDS011;10304;51.074;13.754;2023-10-08T11:00:04;5.93;;;1.73;;
20290;SDS011;10304;51.074;13.754;2023-10-08T11:02:50;5.43;;;1.90;;
20290;SDS011;10304;51.074;13.754;2023-10-08T11:05:19;6.10;;;2.05;;
20290;SDS011;10304;51.074;13.754;2023-10-08T11:07:51;2.78;;;1.77;;
20290;SDS011;10304;51.074;13.754;2023-10-08T11:10:18;25.50;;;14.50;;
20290;SDS011;10304;51.074;13.754;2023-10-08T11:12:50;38.20;;;26.83;;
20290;SDS011;10304;51.074;13.754;2023-10-08T11:15:20;10.10;;;6.20;;
20290;SDS011;10304;51.074;13.754;2023-10-08T11:17:49;5.43;;;2.28;;
20290;SDS011;10304;51.074;13.754;2023-10-08T11:22:54;43.05;;;28.42;;
20290;SDS011;10304;51.074;13.754;2023-10-08T11:25:22;5.22;;;2.72;;
20290;SDS011;10304;51.074;13.754;2023-10-08T11:27:51;33.75;;;18.48;;
20290;SDS011;10304;51.074;13.754;2023-10-08T11:30:25;72.40;;;35.28;;
20290;SDS011;10304;51.074;13.754;2023-10-08T11:32:59;76.05;;;35.55;;
20290;SDS011;10304;51.074;13.754;2023-10-08T11:35:26;71.85;;;29.10;;
20290;SDS011;10304;51.074;13.754;2023-10-08T11:37:58;51.20;;;24.40;;
20290;SDS011;10304;51.074;13.754;2023-10-08T11:40:27;116.93;;;49.17;;
20290;SDS011;10304;51.074;13.754;2023-10-08T11:43:17;26.08;;;12.25;;
20290;SDS011;10304;51.074;13.754;2023-10-08T11:45:45;37.35;;;16.20;;
20290;SDS011;10304;51.074;13.754;2023-10-08T11:48:14;18.33;;;9.00;;
20290;SDS011;10304;51.074;13.754;2023-10-08T11:50:48;23.65;;;13.35;;
20290;SDS011;10304;51.074;13.754;2023-10-08T11:53:17;8.55;;;4.80;;
20290;SDS011;10304;51.074;13.754;2023-10-08T11:55:45;9.02;;;4.05;;
20290;SDS011;10304;51.074;13.754;2023-10-08T11:58:14;9.35;;;4.40;;
20290;SDS011;10304;51.074;13.754;2023-10-08T12:00:44;4.57;;;2.47;;
20290;SDS011;10304;51.074;13.754;2023-10-08T12:03:13;7.82;;;2.80;;
20290;SDS011;10304;51.074;13.754;2023-10-08T12:05:47;7.90;;;3.28;;
20290;SDS011;10304;51.074;13.754;2023-10-08T12:08:16;6.30;;;2.97;;
20290;SDS011;10304;51.074;13.754;2023-10-08T12:10:46;6.15;;;2.22;;
20290;SDS011;10304;51.074;13.754;2023-10-08T12:13:14;6.10;;;2.78;;
20290;SDS011;10304;51.074;13.754;2023-10-08T12:15:45;6.55;;;2.58;;
20290;SDS011;10304;51.074;13.754;2023-10-08T12:18:13;4.95;;;2.38;;
20290;SDS011;10304;51.074;13.754;2023-10-08T12:20:55;5.45;;;2.45;;
20290;SDS011;10304;51.074;13.754;2023-10-08T12:23:21;4.82;;;2.17;;
20290;SDS011;10304;51.074;13.754;2023-10-08T12:28:22;2.72;;;1.70;;
20290;SDS011;10304;51.074;13.754;2023-10-08T12:30:50;4.78;;;1.85;;
20290;SDS011;10304;51.074;13.754;2023-10-08T12:33:22;5.68;;;2.22;;
20290;SDS011;10304;51.074;13.754;2023-10-08T12:35:50;2.80;;;1.58;;
20290;SDS011;10304;51.074;13.754;2023-10-08T12:38:22;4.95;;;2.20;;
20290;SDS011;10304;51.074;13.754;2023-10-08T12:40:50;4.03;;;1.60;;
20290;SDS011;10304;51.074;13.754;2023-10-08T12:43:23;5.53;;;1.73;;
20290;SDS011;10304;51.074;13.754;2023-10-08T12:45:54;5.28;;;1.80;;
20290;SDS011;10304;51.074;13.754;2023-10-08T12:48:23;3.42;;;1.75;;
20290;SDS011;10304;51.074;13.754;2023-10-08T12:50:53;5.60;;;1.65;;
20290;SDS011;10304;51.074;13.754;2023-10-08T12:53:24;5.13;;;1.90;;
20290;SDS011;10304;51.074;13.754;2023-10-08T12:56:00;5.72;;;1.73;;
20290;SDS011;10304;51.074;13.754;2023-10-08T12:58:33;4.57;;;1.77;;
20290;SDS011;10304;51.074;13.754;2023-10-08T13:01:07;5.20;;;1.75;;
20290;SDS011;10304;51.074;13.754;2023-10-08T13:03:36;15.13;;;10.15;;
20290;SDS011;10304;51.074;13.754;2023-10-08T13:06:14;54.75;;;36.53;;
20290;SDS011;10304;51.074;13.754;2023-10-08T13:08:49;11.85;;;7.72;;
20290;SDS011;10304;51.074;13.754;2023-10-08T13:11:19;22.38;;;13.27;;
20290;SDS011;10304;51.074;13.754;2023-10-08T13:13:49;14.38;;;8.68;;
20290;SDS011;10304;51.074;13.754;2023-10-08T13:16:25;7.55;;;2.60;;
20290;SDS011;10304;51.074;13.754;2023-10-08T13:18:57;6.78;;;1.70;;
20290;SDS011;10304;51.074;13.754;2023-10-08T13:21:25;5.28;;;1.88;;
20290;SDS011;10304;51.074;13.754;2023-10-08T13:23:54;52.78;;;30.35;;
20290;SDS011;10304;51.074;13.754;2023-10-08T13:26:26;80.63;;;37.40;;
20290;SDS011;10304;51.074;13.754;2023-10-08T13:28:58;67.15;;;27.80;;
20290;SDS011;10304;51.074;13.754;2023-10-08T13:31:25;36.17;;;15.32;;
20290;SDS011;10304;51.074;13.754;2023-10-08T13:33:53;115.20;;;45.58;;
20290;SDS011;10304;51.074;13.754;2023-10-08T13:36:29;28.98;;;11.65;;
20290;SDS011;10304;51.074;13.754;2023-10-08T13:38:57;5.03;;;2.30;;
20290;SDS011;10304;51.074;13.754;2023-10-08T13:41:24;2.97;;;1.85;;
20290;SDS011;10304;51.074;13.754;2023-10-08T13:43:55;4.18;;;1.77;;
20290;SDS011;10304;51.074;13.754;2023-10-08T13:46:31;4.35;;;1.92;;
20290;SDS011;10304;51.074;13.754;2023-10-08T13:49:02;4.32;;;1.98;;
20290;SDS011;10304;51.074;13.754;2023-10-08T13:51:32;4.43;;;2.33;;
20290;SDS011;10304;51.074;13.754;2023-10-08T13:54:01;4.30;;;2.42;;
20290;SDS011;10304;51.074;13.754;2023-10-08T13:56:33;5.20;;;2.40;;
20290;SDS011;10304;51.074;13.754;2023-10-08T13:59:00;5.38;;;3.28;;
20290;SDS011;10304;51.074;13.754;2023-10-08T14:01:32;4.85;;;2.17;;
20290;SDS011;10304;51.074;13.754;2023-10-08T14:04:01;3.47;;;1.85;;
20290;SDS011;10304;51.074;13.754;2023-10-08T14:06:32;3.90;;;2.00;;
20290;SDS011;10304;51.074;13.754;2023-10-08T14:09:01;4.10;;;1.80;;
20290;SDS011;10304;51.074;13.754;2023-10-08T14:11:33;8.40;;;1.98;;
20290;SDS011;10304;51.074;13.754;2023-10-08T14:14:01;3.70;;;1.60;;
20290;SDS011;10304;51.074;13.754;2023-10-08T14:16:40;4.30;;;1.70;;
20290;SDS011;10304;51.074;13.754;2023-10-08T14:19:10;64.18;;;46.10;;
20290;SDS011;10304;51.074;13.754;2023-10-08T14:21:39;14.85;;;8.38;;
20290;SDS011;10304;51.074;13.754;2023-10-08T14:24:20;6.25;;;2.90;;
20290;SDS011;10304;51.074;13.754;2023-10-08T14:26:47;6.20;;;2.13;;
20290;SDS011;10304;51.074;13.754;2023-10-08T14:29:29;4.47;;;2.33;;
20290;SDS011;10304;51.074;13.754;2023-10-08T14:31:56;5.57;;;2.00;;
20290;SDS011;10304;51.074;13.754;2023-10-08T14:34:24;4.88;;;2.10;;
20290;SDS011;10304;51.074;13.754;2023-10-08T14:37:09;3.83;;;1.80;;
20290;SDS011;10304;51.074;13.754;2023-10-08T14:39:55;4.75;;;2.13;;
20290;SDS011;10304;51.074;13.754;2023-10-08T14:43:00;4.68;;;2.05;;
20290;SDS011;10304;51.074;13.754;2023-10-08T14:45:31;5.45;;;2.10;;
20290;SDS011;10304;51.074;13.754;2023-10-08T14:48:02;24.95;;;17.08;;
20290;SDS011;10304;51.074;13.754;2023-10-08T14:50:33;11.32;;;6.65;;
20290;SDS011;10304;51.074;13.754;2023-10-08T14:53:00;8.65;;;6.03;;
20290;SDS011;10304;51.074;13.754;2023-10-08T14:55:28;4.80;;;2.55;;
20290;SDS011;10304;51.074;13.754;2023-10-08T14:57:56;5.78;;;2.42;;
20290;SDS011;10304;51.074;13.754;2023-10-08T15:00:23;5.95;;;2.30;;
20290;SDS011;10304;51.074;13.754;2023-10-08T15:02:53;57.17;;;40.28;;
20290;SDS011;10304;51.074;13.754;2023-10-08T15:05:21;32.38;;;20.05;;
20290;SDS011;10304;51.074;13.754;2023-10-08T15:07:49;15.25;;;10.70;;
20290;SDS011;10304;51.074;13.754;2023-10-08T15:10:17;276.48;;;166.80;;
20290;SDS011;10304;51.074;13.754;2023-10-08T15:12:45;471.77;;;248.18;;
20290;SDS011;10304;51.074;13.754;2023-10-08T15:15:12;359.27;;;173.50;;